Time;durP1;ratioP1;P1;durP2;ratioP2;P2;SDS_P1;SDS_P2;PMS_P1;PMS_P2;Temp;Humidity;BMP_temperature;BMP_pressure;BME280_temperature;BME280_humidity;BME280_pressure;Samples;Min_cycle;Max_cycle;Signal;HPM_P1;HPM_P2
2023/07/08 00:01:57;;;;;;;4.40;2.85;;;;;;;;;;5051635;28;20034;-77
2023/07/08 00:04:23;;;;;;;4.13;2.55;;;;;;;;;;5050822;28;20036;-76
2023/07/08 00:06:49;;;;;;;5.43;2.72;;;;;;;;;;5043230;28;20480;-76
2023/07/08 00:09:15;;;;;;;4.45;2.70;;;;;;;;;;5046778;28;20108;-76
2023/07/08 00:11:41;;;;;;;5.00;2.97;;;;;;;;;;5046440;28;20407;-76
2023/07/08 00:14:07;;;;;;;6.63;3.25;;;;;;;;;;5043504;28;20044;-76
2023/07/08 00:16:33;;;;;;;4.45;3.00;;;;;;;;;;5052647;28;20113;-76
2023/07/08 00:18:59;;;;;;;3.88;2.72;;;;;;;;;;5037025;28;20373;-76
2023/07/08 00:21:25;;;;;;;4.07;2.53;;;;;;;;;;5058258;28;20045;-76
2023/07/08 00:23:52;;;;;;;3.72;2.63;;;;;;;;;;5061325;28;20487;-76
2023/07/08 00:26:20;;;;;;;3.38;2.58;;;;;;;;;;5055092;28;20033;-76
2023/07/08 00:28:46;;;;;;;4.80;2.88;;;;;;;;;;5048216;28;20391;-76
2023/07/08 00:31:12;;;;;;;3.70;2.90;;;;;;;;;;5051095;28;20021;-76
2023/07/08 00:33:39;;;;;;;5.55;2.92;;;;;;;;;;5039999;28;20392;-76
2023/07/08 00:36:09;;;;;;;3.38;2.60;;;;;;;;;;5057559;28;20013;-76
2023/07/08 00:38:38;;;;;;;5.60;2.87;;;;;;;;;;5049743;28;20028;-76
2023/07/08 00:41:07;;;;;;;3.58;2.88;;;;;;;;;;5064057;28;20020;-76
2023/07/08 00:43:36;;;;;;;4.57;2.97;;;;;;;;;;5045039;28;20029;-76
2023/07/08 00:46:11;;;;;;;4.47;2.95;;;;;;;;;;5054008;28;20116;-76
2023/07/08 00:48:37;;;;;;;3.65;2.60;;;;;;;;;;5054157;28;20116;-76
2023/07/08 00:51:03;;;;;;;4.57;2.63;;;;;;;;;;5030538;28;20049;-76
2023/07/08 00:53:33;;;;;;;3.75;2.70;;;;;;;;;;5046191;28;20672;-76
2023/07/08 00:56:01;;;;;;;7.90;2.67;;;;;;;;;;5052598;28;20400;-76
2023/07/08 00:58:32;;;;;;;4.22;2.58;;;;;;;;;;5054777;28;20077;-76
2023/07/08 01:00:58;;;;;;;3.60;2.53;;;;;;;;;;5038085;28;20067;-76
2023/07/08 01:03:25;;;;;;;3.67;2.63;;;;;;;;;;5051795;28;20029;-76
2023/07/08 01:05:52;;;;;;;4.10;2.72;;;;;;;;;;5052440;28;20120;-76
2023/07/08 01:08:18;;;;;;;4.38;3.00;;;;;;;;;;5045615;28;20122;-76
2023/07/08 01:10:47;;;;;;;5.63;2.75;;;;;;;;;;5033463;28;20468;-77
2023/07/08 01:13:13;;;;;;;4.05;2.55;;;;;;;;;;5048159;28;20450;-76
2023/07/08 01:15:41;;;;;;;3.25;2.60;;;;;;;;;;5049813;28;20387;-76
2023/07/08 01:18:08;;;;;;;5.95;2.97;;;;;;;;;;5048675;28;20025;-76
2023/07/08 01:20:35;;;;;;;4.22;2.90;;;;;;;;;;5043727;28;20110;-77
2023/07/08 01:23:01;;;;;;;6.45;2.70;;;;;;;;;;5048883;28;20033;-76
2023/07/08 01:25:27;;;;;;;3.88;2.42;;;;;;;;;;5047296;28;20537;-76
2023/07/08 01:27:54;;;;;;;3.60;2.58;;;;;;;;;;5051088;28;20040;-76
2023/07/08 01:30:20;;;;;;;3.83;2.30;;;;;;;;;;5048722;28;20025;-76
2023/07/08 01:32:49;;;;;;;3.72;2.72;;;;;;;;;;5042534;28;20037;-76
2023/07/08 01:35:15;;;;;;;4.80;2.10;;;;;;;;;;5050875;28;20020;-76
2023/07/08 01:37:43;;;;;;;2.92;2.50;;;;;;;;;;5047143;28;20040;-76
2023/07/08 01:40:21;;;;;;;4.90;3.15;;;;;;;;;;5049046;28;20036;-77
2023/07/08 01:42:47;;;;;;;3.38;2.58;;;;;;;;;;5046237;28;20035;-76
2023/07/08 01:45:16;;;;;;;3.60;2.38;;;;;;;;;;5049005;28;20494;-76
2023/07/08 01:47:43;;;;;;;2.95;2.47;;;;;;;;;;5049271;28;20025;-76
2023/07/08 01:50:10;;;;;;;3.45;2.58;;;;;;;;;;5050962;28;20029;-76
2023/07/08 01:52:39;;;;;;;4.53;2.53;;;;;;;;;;5040338;28;20036;-76
2023/07/08 01:55:05;;;;;;;4.43;2.90;;;;;;;;;;5053989;28;20028;-76
2023/07/08 01:57:31;;;;;;;2.88;2.40;;;;;;;;;;5049280;28;20029;-76
2023/07/08 01:59:57;;;;;;;3.10;2.15;;;;;;;;;;5044017;28;20041;-76
2023/07/08 02:02:24;;;;;;;3.35;2.25;;;;;;;;;;5043581;28;20025;-75
2023/07/08 02:04:50;;;;;;;3.28;2.53;;;;;;;;;;5036094;28;20021;-75
2023/07/08 02:07:16;;;;;;;3.92;2.22;;;;;;;;;;5028973;28;20480;-75
2023/07/08 02:09:42;;;;;;;4.57;2.40;;;;;;;;;;5044792;28;20104;-75
2023/07/08 02:12:08;;;;;;;3.85;2.42;;;;;;;;;;5040247;28;20258;-76
2023/07/08 02:14:34;;;;;;;3.67;2.55;;;;;;;;;;5043107;28;20112;-76
2023/07/08 02:17:05;;;;;;;2.28;2.00;;;;;;;;;;5031801;28;20025;-76
2023/07/08 02:19:31;;;;;;;4.22;2.10;;;;;;;;;;5058548;28;20092;-77
2023/07/08 02:21:57;;;;;;;3.85;2.45;;;;;;;;;;5050321;28;20119;-77
2023/07/08 02:24:26;;;;;;;2.72;2.45;;;;;;;;;;5042283;28;20028;-77
2023/07/08 02:26:52;;;;;;;3.63;2.30;;;;;;;;;;5046791;28;20025;-76
2023/07/08 02:29:18;;;;;;;2.92;2.20;;;;;;;;;;5046293;28;20028;-76
2023/07/08 02:31:44;;;;;;;2.88;2.13;;;;;;;;;;5050361;28;20040;-77
2023/07/08 02:34:10;;;;;;;3.22;2.28;;;;;;;;;;5045998;28;21375;-77
2023/07/08 02:36:38;;;;;;;4.00;2.25;;;;;;;;;;5055759;28;20028;-76
2023/07/08 02:39:05;;;;;;;3.47;2.20;;;;;;;;;;5041460;28;20652;-77
2023/07/08 02:41:31;;;;;;;3.47;2.53;;;;;;;;;;5040824;28;20434;-76
2023/07/08 02:43:57;;;;;;;3.38;2.42;;;;;;;;;;5047841;28;20029;-76
2023/07/08 02:46:23;;;;;;;2.38;1.98;;;;;;;;;;5057047;28;20028;-76
2023/07/08 02:48:49;;;;;;;8.40;2.42;;;;;;;;;;5047544;28;20016;-76
2023/07/08 02:51:15;;;;;;;4.75;2.05;;;;;;;;;;5043903;28;20555;-76
2023/07/08 02:53:41;;;;;;;3.97;2.40;;;;;;;;;;5047669;28;20017;-76
2023/07/08 02:56:07;;;;;;;3.92;2.22;;;;;;;;;;5059486;28;20031;-76
2023/07/08 02:58:34;;;;;;;2.50;2.22;;;;;;;;;;5049450;28;20024;-76
2023/07/08 03:01:00;;;;;;;3.65;2.25;;;;;;;;;;5047649;28;20039;-76
2023/07/08 03:03:28;;;;;;;2.95;2.25;;;;;;;;;;5047694;28;20483;-76
2023/07/08 03:05:59;;;;;;;4.07;2.35;;;;;;;;;;5048558;28;20033;-77
2023/07/08 03:08:25;;;;;;;3.22;2.42;;;;;;;;;;5043437;28;20017;-76
2023/07/08 03:10:56;;;;;;;3.85;2.35;;;;;;;;;;5052760;28;20017;-76
2023/07/08 03:13:22;;;;;;;2.85;2.00;;;;;;;;;;5044520;28;20028;-76
2023/07/08 03:15:48;;;;;;;4.35;2.40;;;;;;;;;;5048378;28;20029;-76
2023/07/08 03:18:14;;;;;;;3.00;1.88;;;;;;;;;;5048729;28;20408;-76
2023/07/08 03:20:40;;;;;;;3.63;2.45;;;;;;;;;;5044064;28;21951;-76
2023/07/08 03:23:06;;;;;;;2.65;2.40;;;;;;;;;;5049744;28;20091;-76
2023/07/08 03:25:32;;;;;;;2.80;1.98;;;;;;;;;;5036207;28;20025;-76
2023/07/08 03:27:59;;;;;;;4.45;2.10;;;;;;;;;;5056689;28;20021;-76
2023/07/08 03:30:25;;;;;;;3.60;2.08;;;;;;;;;;5056560;28;20025;-76
2023/07/08 03:32:50;;;;;;;3.45;1.80;;;;;;;;;;5052792;28;20040;-76
2023/07/08 03:35:16;;;;;;;3.22;2.70;;;;;;;;;;5037383;28;20048;-75
2023/07/08 03:37:42;;;;;;;3.75;2.25;;;;;;;;;;5052791;28;20082;-76
2023/07/08 03:40:12;;;;;;;3.25;2.08;;;;;;;;;;5044192;28;20618;-76
2023/07/08 03:42:38;;;;;;;3.40;2.03;;;;;;;;;;5049773;28;20098;-75
2023/07/08 03:45:04;;;;;;;2.38;2.05;;;;;;;;;;5049142;28;20377;-76
2023/07/08 03:47:30;;;;;;;3.58;2.40;;;;;;;;;;5051826;28;20068;-76
2023/07/08 03:49:56;;;;;;;2.30;1.63;;;;;;;;;;5049281;28;20017;-76
2023/07/08 03:52:22;;;;;;;4.35;1.92;;;;;;;;;;5053317;28;20027;-76
2023/07/08 03:54:48;;;;;;;2.30;1.90;;;;;;;;;;5058873;28;20033;-76
2023/07/08 03:57:14;;;;;;;2.63;1.75;;;;;;;;;;5050175;28;20035;-75
2023/07/08 03:59:40;;;;;;;3.90;2.38;;;;;;;;;;5049015;28;20029;-76
2023/07/08 04:02:06;;;;;;;3.05;1.92;;;;;;;;;;5048026;28;20392;-76
2023/07/08 04:04:32;;;;;;;4.72;2.50;;;;;;;;;;5037567;28;20029;-76
2023/07/08 04:06:58;;;;;;;3.63;2.30;;;;;;;;;;5050007;28;20045;-76
2023/07/08 04:09:24;;;;;;;2.15;1.95;;;;;;;;;;5053224;28;20049;-76
2023/07/08 04:11:50;;;;;;;2.05;1.80;;;;;;;;;;5047490;28;20017;-76
2023/07/08 04:14:16;;;;;;;2.72;2.17;;;;;;;;;;5053603;28;20020;-76
2023/07/08 04:16:47;;;;;;;2.83;2.13;;;;;;;;;;5042430;28;20577;-75
2023/07/08 04:19:14;;;;;;;3.40;2.15;;;;;;;;;;5054795;28;20020;-75
2023/07/08 04:21:42;;;;;;;4.90;2.00;;;;;;;;;;5053564;28;20039;-77
2023/07/08 04:24:09;;;;;;;3.03;2.10;;;;;;;;;;5052596;28;20039;-75
2023/07/08 04:26:35;;;;;;;3.28;2.00;;;;;;;;;;5052819;28;20033;-76
2023/07/08 04:29:01;;;;;;;2.83;2.10;;;;;;;;;;5050624;28;20131;-76
2023/07/08 04:31:27;;;;;;;4.63;2.05;;;;;;;;;;5050811;28;20037;-76
2023/07/08 04:33:53;;;;;;;2.72;2.00;;;;;;;;;;5049666;28;20036;-77
2023/07/08 04:36:21;;;;;;;3.22;1.95;;;;;;;;;;5045314;28;20033;-76
2023/07/08 04:38:47;;;;;;;3.20;2.13;;;;;;;;;;5045397;28;20032;-76
2023/07/08 04:41:13;;;;;;;3.00;1.95;;;;;;;;;;5049556;28;20033;-76
2023/07/08 04:43:41;;;;;;;2.25;1.90;;;;;;;;;;5048148;28;20128;-76
2023/07/08 04:46:16;;;;;;;3.53;2.28;;;;;;;;;;5035530;28;20021;-76
2023/07/08 04:48:42;;;;;;;2.47;1.70;;;;;;;;;;5038164;28;20112;-76
2023/07/08 04:51:08;;;;;;;2.30;2.10;;;;;;;;;;5046454;28;20332;-76
2023/07/08 04:53:34;;;;;;;2.55;1.83;;;;;;;;;;5041180;28;20033;-76
2023/07/08 04:56:00;;;;;;;3.55;2.00;;;;;;;;;;5044849;28;20079;-76
2023/07/08 04:58:26;;;;;;;3.60;2.33;;;;;;;;;;5047833;28;20043;-76
2023/07/08 05:00:52;;;;;;;2.65;2.00;;;;;;;;;;5039589;28;20030;-75
2023/07/08 05:03:18;;;;;;;2.08;1.70;;;;;;;;;;5048301;28;20036;-76
2023/07/08 05:05:44;;;;;;;2.40;2.20;;;;;;;;;;5048876;28;20028;-76
2023/07/08 05:08:10;;;;;;;3.08;2.00;;;;;;;;;;5038597;28;20025;-76
2023/07/08 05:10:36;;;;;;;2.40;2.00;;;;;;;;;;5044541;28;20375;-76
2023/07/08 05:13:02;;;;;;;2.97;2.28;;;;;;;;;;5048346;28;20021;-76
2023/07/08 05:15:29;;;;;;;2.38;1.77;;;;;;;;;;5048370;28;20032;-76
2023/07/08 05:17:55;;;;;;;3.05;1.70;;;;;;;;;;5046852;28;20037;-76
2023/07/08 05:20:22;;;;;;;2.53;2.03;;;;;;;;;;5047134;28;20114;-76
2023/07/08 05:22:48;;;;;;;4.00;2.05;;;;;;;;;;5046867;28;20864;-76
2023/07/08 05:25:14;;;;;;;2.13;1.67;;;;;;;;;;5049350;28;20064;-76
2023/07/08 05:27:40;;;;;;;2.42;1.83;;;;;;;;;;5045316;28;20033;-76
2023/07/08 05:30:07;;;;;;;2.80;1.70;;;;;;;;;;5045647;28;20025;-76
2023/07/08 05:32:33;;;;;;;2.67;1.90;;;;;;;;;;5047037;28;20021;-76
2023/07/08 05:34:59;;;;;;;2.67;1.88;;;;;;;;;;5049143;28;20078;-76
2023/07/08 05:37:28;;;;;;;2.13;1.63;;;;;;;;;;5046531;28;20444;-76
2023/07/08 05:39:54;;;;;;;2.38;1.90;;;;;;;;;;5048236;28;20028;-76
2023/07/08 05:42:24;;;;;;;2.30;1.90;;;;;;;;;;5046658;28;20086;-77
2023/07/08 05:44:51;;;;;;;3.45;1.95;;;;;;;;;;5049989;28;20033;-76
2023/07/08 05:47:17;;;;;;;2.92;1.83;;;;;;;;;;5041720;28;20036;-76
2023/07/08 05:49:43;;;;;;;2.88;2.38;;;;;;;;;;5052443;28;20060;-75
2023/07/08 05:52:11;;;;;;;2.40;2.03;;;;;;;;;;5048212;28;20372;-76
2023/07/08 05:54:40;;;;;;;1.80;1.67;;;;;;;;;;5048455;28;20083;-76
2023/07/08 05:57:08;;;;;;;2.47;1.98;;;;;;;;;;5044227;28;20029;-76
2023/07/08 05:59:35;;;;;;;2.50;2.03;;;;;;;;;;5052648;28;20029;-76
2023/07/08 06:02:01;;;;;;;2.92;2.22;;;;;;;;;;5046663;28;20029;-76
2023/07/08 06:04:27;;;;;;;4.40;2.08;;;;;;;;;;5048638;28;20051;-75
2023/07/08 06:06:53;;;;;;;2.65;2.03;;;;;;;;;;5045834;28;20035;-77
2023/07/08 06:09:19;;;;;;;2.88;2.25;;;;;;;;;;5040385;28;20415;-77
2023/07/08 06:11:45;;;;;;;4.75;2.00;;;;;;;;;;5048965;28;20033;-78
2023/07/08 06:14:11;;;;;;;3.03;1.90;;;;;;;;;;5043777;28;20104;-75
2023/07/08 06:16:37;;;;;;;2.00;1.75;;;;;;;;;;5056169;28;20104;-75
2023/07/08 06:19:03;;;;;;;2.33;2.13;;;;;;;;;;5045432;28;20136;-74
2023/07/08 06:21:29;;;;;;;3.83;1.80;;;;;;;;;;5057307;28;20032;-75
2023/07/08 06:23:55;;;;;;;4.63;3.10;;;;;;;;;;5050499;28;20032;-76
2023/07/08 06:26:21;;;;;;;3.15;2.13;;;;;;;;;;5046604;28;20021;-75
2023/07/08 06:28:47;;;;;;;3.35;2.25;;;;;;;;;;5046496;28;20017;-75
2023/07/08 06:31:13;;;;;;;2.42;1.73;;;;;;;;;;5042140;28;20036;-75
2023/07/08 06:33:39;;;;;;;3.00;1.98;;;;;;;;;;5045876;28;20079;-75
2023/07/08 06:36:06;;;;;;;3.13;2.15;;;;;;;;;;5042594;28;20045;-76
2023/07/08 06:38:32;;;;;;;2.08;1.77;;;;;;;;;;5039548;28;20044;-76
2023/07/08 06:40:58;;;;;;;2.95;2.20;;;;;;;;;;5038208;28;20396;-76
2023/07/08 06:43:24;;;;;;;1.80;1.52;;;;;;;;;;5031536;28;20032;-76
2023/07/08 06:45:50;;;;;;;3.25;2.00;;;;;;;;;;5039997;28;20040;-75
2023/07/08 06:48:16;;;;;;;5.40;2.10;;;;;;;;;;5040430;28;20025;-75
2023/07/08 06:50:43;;;;;;;2.63;2.20;;;;;;;;;;5036296;28;20048;-75
2023/07/08 06:53:09;;;;;;;2.33;2.00;;;;;;;;;;5046809;28;20036;-75
2023/07/08 06:55:35;;;;;;;2.22;1.88;;;;;;;;;;5042991;28;20029;-75
2023/07/08 06:58:03;;;;;;;3.33;1.70;;;;;;;;;;5039656;28;20028;-75
2023/07/08 07:00:29;;;;;;;2.35;1.80;;;;;;;;;;5062725;28;20025;-75
2023/07/08 07:02:55;;;;;;;2.45;2.13;;;;;;;;;;5065026;28;20140;-75
2023/07/08 07:05:47;;;;;;;1.83;1.65;;;;;;;;;;5048796;28;20500;-74
2023/07/08 07:08:13;;;;;;;2.03;1.65;;;;;;;;;;5041808;28;20491;-75
2023/07/08 07:10:39;;;;;;;2.45;2.05;;;;;;;;;;5040045;28;20037;-76
2023/07/08 07:13:05;;;;;;;2.70;2.03;;;;;;;;;;5045930;28;20029;-76
2023/07/08 07:15:32;;;;;;;3.67;2.20;;;;;;;;;;5041749;28;20052;-76
2023/07/08 07:18:00;;;;;;;9.77;2.38;;;;;;;;;;5054063;28;20734;-85
2023/07/08 07:20:27;;;;;;;4.78;2.13;;;;;;;;;;5056673;28;20779;-78
2023/07/08 07:22:53;;;;;;;2.78;1.85;;;;;;;;;;5050052;28;20035;-79
2023/07/08 07:25:20;;;;;;;2.17;1.90;;;;;;;;;;5039699;28;20033;-77
2023/07/08 07:27:45;;;;;;;2.22;1.73;;;;;;;;;;5041423;28;20028;-76
2023/07/08 07:30:15;;;;;;;4.10;1.77;;;;;;;;;;5049683;28;20090;-76
2023/07/08 07:32:42;;;;;;;1.60;1.48;;;;;;;;;;5057955;28;20033;-78
2023/07/08 07:35:08;;;;;;;2.65;1.70;;;;;;;;;;5038000;28;20060;-77
2023/07/08 07:37:35;;;;;;;2.83;1.65;;;;;;;;;;5042804;28;20029;-78
2023/07/08 07:40:01;;;;;;;2.03;1.75;;;;;;;;;;5044582;28;20729;-77
2023/07/08 07:42:28;;;;;;;2.72;2.00;;;;;;;;;;5051065;28;20025;-78
2023/07/08 07:44:54;;;;;;;4.35;1.95;;;;;;;;;;5051720;28;20689;-79
2023/07/08 07:47:20;;;;;;;1.80;1.52;;;;;;;;;;5051834;28;20020;-78
2023/07/08 07:49:46;;;;;;;3.53;1.77;;;;;;;;;;5040696;28;20033;-79
2023/07/08 07:52:12;;;;;;;2.72;1.90;;;;;;;;;;5031803;28;20176;-78
2023/07/08 07:54:38;;;;;;;5.25;1.50;;;;;;;;;;5031555;28;20029;-79
2023/07/08 07:57:05;;;;;;;2.53;2.15;;;;;;;;;;5031336;28;20527;-78
2023/07/08 07:59:31;;;;;;;4.13;1.77;;;;;;;;;;5039704;28;20033;-78
2023/07/08 08:01:57;;;;;;;3.30;2.40;;;;;;;;;;5042572;28;20736;-78
2023/07/08 08:04:23;;;;;;;3.58;2.10;;;;;;;;;;5032107;28;20041;-79
2023/07/08 08:06:49;;;;;;;2.03;1.70;;;;;;;;;;5044950;28;20029;-78
2023/07/08 08:09:15;;;;;;;1.50;1.40;;;;;;;;;;5031309;28;20021;-78
2023/07/08 08:11:41;;;;;;;2.30;1.67;;;;;;;;;;5030695;28;20380;-78
2023/07/08 08:14:07;;;;;;;1.90;1.60;;;;;;;;;;5030999;28;20384;-78
2023/07/08 08:16:32;;;;;;;2.17;1.88;;;;;;;;;;5036497;28;20037;-78
2023/07/08 08:18:58;;;;;;;2.40;1.70;;;;;;;;;;5032631;28;20029;-78
2023/07/08 08:21:24;;;;;;;1.80;1.60;;;;;;;;;;5050353;28;20056;-78
2023/07/08 08:23:50;;;;;;;1.92;1.73;;;;;;;;;;5048049;28;20025;-78
2023/07/08 08:26:16;;;;;;;1.60;1.50;;;;;;;;;;5037411;28;20028;-78
2023/07/08 08:28:42;;;;;;;2.45;1.73;;;;;;;;;;5050597;28;20476;-78
2023/07/08 08:31:08;;;;;;;1.65;1.55;;;;;;;;;;5050445;28;20028;-78
2023/07/08 08:33:34;;;;;;;2.88;1.83;;;;;;;;;;5050326;28;20503;-78
2023/07/08 08:36:00;;;;;;;2.30;1.70;;;;;;;;;;5049107;28;20399;-78
2023/07/08 08:38:26;;;;;;;3.90;2.00;;;;;;;;;;5040876;28;20029;-77
2023/07/08 08:40:52;;;;;;;2.53;1.75;;;;;;;;;;5030019;28;20117;-78
2023/07/08 08:43:21;;;;;;;2.53;1.80;;;;;;;;;;5030595;28;20741;-78
2023/07/08 08:45:56;;;;;;;2.05;1.67;;;;;;;;;;5030575;28;20459;-78
2023/07/08 08:48:24;;;;;;;1.77;1.65;;;;;;;;;;5045031;28;20020;-77
2023/07/08 08:50:56;;;;;;;1.80;1.52;;;;;;;;;;5031730;28;20068;-78
2023/07/08 08:53:23;;;;;;;2.55;1.80;;;;;;;;;;5030367;28;20025;-78
2023/07/08 08:55:58;;;;;;;1.85;1.60;;;;;;;;;;5029942;28;20025;-78
2023/07/08 08:58:31;;;;;;;4.50;1.85;;;;;;;;;;5037686;28;20558;-79
2023/07/08 09:00:59;;;;;;;2.85;1.63;;;;;;;;;;5030435;28;20029;-78
2023/07/08 09:03:40;;;;;;;3.08;1.80;;;;;;;;;;5029920;28;20572;-78
2023/07/08 09:06:14;;;;;;;2.42;1.75;;;;;;;;;;5030066;28;20738;-78
2023/07/08 09:08:40;;;;;;;3.13;1.88;;;;;;;;;;5029884;28;20072;-79
2023/07/08 09:11:25;;;;;;;3.95;1.67;;;;;;;;;;5037990;28;20033;-78
2023/07/08 09:14:17;;;;;;;2.55;1.77;;;;;;;;;;5029841;28;20032;-78
2023/07/08 09:16:46;;;;;;;1.98;1.40;;;;;;;;;;5028519;28;20120;-77
2023/07/08 09:19:14;;;;;;;1.48;1.30;;;;;;;;;;5031964;28;20032;-78
2023/07/08 09:22:00;;;;;;;1.90;1.65;;;;;;;;;;5042761;28;20495;-77
2023/07/08 09:24:32;;;;;;;1.52;1.33;;;;;;;;;;5049390;28;20021;-78
2023/07/08 09:27:00;;;;;;;1.50;1.27;;;;;;;;;;5049110;28;20048;-77
2023/07/08 09:29:26;;;;;;;2.33;1.52;;;;;;;;;;5049633;28;20017;-78
2023/07/08 09:31:52;;;;;;;1.73;1.42;;;;;;;;;;5038833;28;20108;-78
2023/07/08 09:34:24;;;;;;;1.77;1.48;;;;;;;;;;5029589;28;20112;-77
2023/07/08 09:36:51;;;;;;;1.75;1.48;;;;;;;;;;5029832;28;20033;-78
2023/07/08 09:39:18;;;;;;;2.03;1.83;;;;;;;;;;5029221;28;20448;-78
2023/07/08 09:41:46;;;;;;;2.35;1.50;;;;;;;;;;5036523;28;20040;-78
2023/07/08 09:44:15;;;;;;;2.25;1.58;;;;;;;;;;5032475;28;20025;-78
2023/07/08 09:46:41;;;;;;;1.88;1.63;;;;;;;;;;5029158;28;20045;-78
2023/07/08 09:49:17;;;;;;;1.80;1.45;;;;;;;;;;5029391;28;20072;-78
2023/07/08 09:51:44;;;;;;;1.75;1.65;;;;;;;;;;5036556;28;20032;-78
2023/07/08 09:54:10;;;;;;;1.63;1.23;;;;;;;;;;5037657;28;20028;-78
2023/07/08 09:56:38;;;;;;;1.45;1.13;;;;;;;;;;5046005;28;20033;-77
2023/07/08 09:59:04;;;;;;;2.67;1.85;;;;;;;;;;5029828;28;20176;-78
2023/07/08 10:01:30;;;;;;;2.20;1.77;;;;;;;;;;5028862;28;20476;-79
2023/07/08 10:03:59;;;;;;;3.50;1.90;;;;;;;;;;5028810;28;20384;-78
2023/07/08 10:06:26;;;;;;;1.63;1.42;;;;;;;;;;5033184;28;20480;-78
2023/07/08 10:08:54;;;;;;;2.15;1.63;;;;;;;;;;5039095;28;20018;-78
2023/07/08 10:11:26;;;;;;;1.42;1.20;;;;;;;;;;5029143;28;20026;-78
2023/07/08 10:13:53;;;;;;;1.48;1.38;;;;;;;;;;5048542;28;20052;-78
2023/07/08 10:16:23;;;;;;;1.95;1.40;;;;;;;;;;5034430;28;20029;-78
2023/07/08 10:18:49;;;;;;;1.70;1.50;;;;;;;;;;5039845;28;20092;-77
2023/07/08 10:21:33;;;;;;;1.88;1.50;;;;;;;;;;5048589;28;20140;-77
2023/07/08 10:24:18;;;;;;;1.88;1.58;;;;;;;;;;5048544;28;20112;-78
2023/07/08 10:26:47;;;;;;;1.50;1.40;;;;;;;;;;5048314;28;20103;-78
2023/07/08 10:29:29;;;;;;;1.90;1.40;;;;;;;;;;5034400;28;20029;-78
2023/07/08 10:32:21;;;;;;;4.40;1.48;;;;;;;;;;5028604;28;20041;-78
2023/07/08 10:34:52;;;;;;;2.50;1.73;;;;;;;;;;5027313;28;20165;-78
2023/07/08 10:37:18;;;;;;;2.28;1.50;;;;;;;;;;5027422;28;20071;-78
2023/07/08 10:39:52;;;;;;;1.90;1.25;;;;;;;;;;5040872;28;20025;-79
2023/07/08 10:42:37;;;;;;;2.40;1.40;;;;;;;;;;5028419;28;20028;-78
2023/07/08 10:45:08;;;;;;;2.20;1.58;;;;;;;;;;5028555;28;20021;-78
2023/07/08 10:47:34;;;;;;;1.70;1.40;;;;;;;;;;5028180;28;20029;-79
2023/07/08 10:50:12;;;;;;;1.90;1.65;;;;;;;;;;5040661;28;20048;-78
2023/07/08 10:52:58;;;;;;;1.80;1.50;;;;;;;;;;5028652;28;20021;-79
2023/07/08 10:55:41;;;;;;;1.20;1.02;;;;;;;;;;5034454;28;20029;-79
2023/07/08 10:58:24;;;;;;;2.10;1.50;;;;;;;;;;5028628;28;20037;-78
2023/07/08 11:01:14;;;;;;;1.77;1.50;;;;;;;;;;5040153;28;20041;-78
2023/07/08 11:03:52;;;;;;;1.45;1.35;;;;;;;;;;5027703;28;20032;-78
2023/07/08 11:06:21;;;;;;;3.00;1.73;;;;;;;;;;5027984;28;20080;-78
2023/07/08 11:08:59;;;;;;;1.67;1.48;;;;;;;;;;5028045;28;20024;-78
2023/07/08 11:11:31;;;;;;;1.42;1.33;;;;;;;;;;5033418;28;20032;-79
2023/07/08 11:14:02;;;;;;;1.58;1.35;;;;;;;;;;5038604;28;20047;-79
2023/07/08 11:16:34;;;;;;;2.33;1.33;;;;;;;;;;5027891;28;20034;-78
2023/07/08 11:19:06;;;;;;;2.15;1.30;;;;;;;;;;5029984;28;20040;-78
2023/07/08 11:21:37;;;;;;;1.77;1.40;;;;;;;;;;5047009;28;20659;-78
2023/07/08 11:24:07;;;;;;;1.40;1.15;;;;;;;;;;5036096;28;20090;-79
2023/07/08 11:26:37;;;;;;;1.65;1.40;;;;;;;;;;5033239;28;20090;-78
2023/07/08 11:29:04;;;;;;;1.52;1.30;;;;;;;;;;5047967;28;20025;-78
2023/07/08 11:31:32;;;;;;;1.58;1.30;;;;;;;;;;5062969;28;20061;-78
2023/07/08 11:34:04;;;;;;;1.75;1.40;;;;;;;;;;5033777;28;20121;-81
2023/07/08 11:36:40;;;;;;;1.38;1.20;;;;;;;;;;5036997;28;20033;-79
2023/07/08 11:39:26;;;;;;;1.40;1.30;;;;;;;;;;5045223;28;20028;-78
2023/07/08 11:41:55;;;;;;;1.40;0.90;;;;;;;;;;5027462;28;20029;-79
2023/07/08 11:44:24;;;;;;;1.80;1.30;;;;;;;;;;5029098;28;20045;-78
2023/07/08 11:46:54;;;;;;;1.88;1.10;;;;;;;;;;5035274;28;20107;-78
2023/07/08 11:49:20;;;;;;;3.08;1.40;;;;;;;;;;5030339;28;20018;-78
2023/07/08 11:51:47;;;;;;;1.10;1.00;;;;;;;;;;5031386;28;20026;-78
2023/07/08 11:54:15;;;;;;;1.73;1.13;;;;;;;;;;5031350;28;20091;-78
2023/07/08 11:57:10;;;;;;;1.50;1.40;;;;;;;;;;5034971;28;20025;-78
2023/07/08 11:59:41;;;;;;;2.00;1.30;;;;;;;;;;5034552;28;20041;-78
2023/07/08 12:02:16;;;;;;;1.40;1.30;;;;;;;;;;5038848;28;20029;-83
2023/07/08 12:05:00;;;;;;;2.28;1.42;;;;;;;;;;5048163;28;20985;-81
2023/07/08 12:07:41;;;;;;;1.50;1.40;;;;;;;;;;5054167;28;20100;-79
2023/07/08 12:10:08;;;;;;;;;;;;;;;;;;5048618;28;20067;-76
2023/07/08 12:12:37;;;;;;;1.65;1.30;;;;;;;;;;5044836;28;20282;-80
2023/07/08 12:15:16;;;;;;;1.52;1.40;;;;;;;;;;5051624;28;20087;-79
2023/07/08 12:17:42;;;;;;;2.60;1.50;;;;;;;;;;5052268;28;20044;-79
2023/07/08 12:20:17;;;;;;;4.07;1.40;;;;;;;;;;5053975;28;20447;-80
2023/07/08 12:22:43;;;;;;;1.67;1.40;;;;;;;;;;5054139;28;20021;-80
2023/07/08 12:25:13;;;;;;;1.58;1.40;;;;;;;;;;5054081;28;20158;-79
2023/07/08 12:27:39;;;;;;;2.20;1.30;;;;;;;;;;5049818;28;20021;-78
2023/07/08 12:30:06;;;;;;;1.60;1.20;;;;;;;;;;5053185;28;20021;-79
2023/07/08 12:32:33;;;;;;;1.40;1.30;;;;;;;;;;5056125;28;20024;-76
2023/07/08 12:34:59;;;;;;;1.40;1.30;;;;;;;;;;5061232;28;20029;-77
2023/07/08 12:37:25;;;;;;;1.30;1.20;;;;;;;;;;5053314;28;20033;-76
2023/07/08 12:39:55;;;;;;;2.03;1.27;;;;;;;;;;5049452;28;20029;-78
2023/07/08 12:42:21;;;;;;;1.27;1.17;;;;;;;;;;5054653;28;20765;-77
2023/07/08 12:44:48;;;;;;;1.50;1.38;;;;;;;;;;5062291;28;20041;-79
2023/07/08 12:47:14;;;;;;;1.80;1.70;;;;;;;;;;5061587;28;20040;-75
2023/07/08 12:49:40;;;;;;;1.42;1.23;;;;;;;;;;5054371;28;20041;-77
2023/07/08 12:52:06;;;;;;;1.90;1.20;;;;;;;;;;5055494;28;20027;-76
2023/07/08 12:54:34;;;;;;;1.42;1.10;;;;;;;;;;5055310;28;20720;-76
2023/07/08 12:57:00;;;;;;;1.30;1.20;;;;;;;;;;5061433;28;20045;-76
2023/07/08 12:59:26;;;;;;;1.60;1.20;;;;;;;;;;5051696;28;20511;-74
2023/07/08 13:01:53;;;;;;;1.25;1.15;;;;;;;;;;5053553;28;20037;-77
2023/07/08 13:04:19;;;;;;;1.67;1.40;;;;;;;;;;5045962;28;20531;-77
2023/07/08 13:06:46;;;;;;;1.15;1.05;;;;;;;;;;5044073;28;20475;-76
2023/07/08 13:09:32;;;;;;;1.60;1.35;;;;;;;;;;5041207;28;20416;-75
2023/07/08 13:12:02;;;;;;;1.88;1.40;;;;;;;;;;5041433;28;20025;-76
2023/07/08 13:14:28;;;;;;;1.65;1.23;;;;;;;;;;5055111;28;20020;-76
2023/07/08 13:16:54;;;;;;;1.48;1.38;;;;;;;;;;5057336;28;20037;-75
2023/07/08 13:19:20;;;;;;;3.78;1.30;;;;;;;;;;5051571;28;20044;-74
2023/07/08 13:21:47;;;;;;;4.22;1.50;;;;;;;;;;5050360;28;20036;-74
2023/07/08 13:24:13;;;;;;;1.40;1.27;;;;;;;;;;5057177;28;20037;-75
2023/07/08 13:26:39;;;;;;;2.03;1.35;;;;;;;;;;5057108;28;20025;-74
2023/07/08 13:29:11;;;;;;;1.33;1.23;;;;;;;;;;5050132;28;20037;-74
2023/07/08 13:31:38;;;;;;;1.23;1.13;;;;;;;;;;5048398;28;20017;-75
2023/07/08 13:34:16;;;;;;;1.50;1.23;;;;;;;;;;5049856;28;20032;-76
2023/07/08 13:36:44;;;;;;;1.45;1.33;;;;;;;;;;5046127;28;20040;-76
2023/07/08 13:39:15;;;;;;;4.50;1.38;;;;;;;;;;5046517;28;20094;-76
2023/07/08 13:41:45;;;;;;;1.40;1.27;;;;;;;;;;5053184;28;20521;-81
2023/07/08 13:44:11;;;;;;;1.73;1.42;;;;;;;;;;5041938;28;20049;-83
2023/07/08 13:46:40;;;;;;;1.60;1.15;;;;;;;;;;5058305;28;20035;-82
2023/07/08 13:49:11;;;;;;;1.30;1.20;;;;;;;;;;5051881;28;20111;-80
2023/07/08 13:51:37;;;;;;;;;;;;;;;;;;5052835;28;20433;-81
2023/07/08 13:54:13;;;;;;;0.88;0.80;;;;;;;;;;5059716;28;19912;-81
2023/07/08 13:56:41;;;;;;;1.63;1.40;;;;;;;;;;5058816;28;20052;-80
2023/07/08 13:59:08;;;;;;;1.67;1.38;;;;;;;;;;5048921;28;20035;-81
2023/07/08 14:01:35;;;;;;;3.95;1.40;;;;;;;;;;5046740;28;20124;-78
2023/07/08 14:04:02;;;;;;;2.30;1.42;;;;;;;;;;5048402;28;20115;-82
2023/07/08 14:06:30;;;;;;;1.45;1.20;;;;;;;;;;5059016;28;20361;-78
2023/07/08 14:09:02;;;;;;;2.17;1.45;;;;;;;;;;5049142;28;20086;-84
2023/07/08 14:11:28;;;;;;;1.33;1.23;;;;;;;;;;5044011;28;20024;-79
2023/07/08 14:13:54;;;;;;;1.70;1.60;;;;;;;;;;5066757;28;20025;-80
2023/07/08 14:16:28;;;;;;;1.83;1.35;;;;;;;;;;5054495;28;20025;-81
2023/07/08 14:18:55;;;;;;;1.73;1.38;;;;;;;;;;5055698;28;20364;-80
2023/07/08 14:21:21;;;;;;;1.50;1.23;;;;;;;;;;5048258;28;20423;-80
2023/07/08 14:23:47;;;;;;;2.33;1.25;;;;;;;;;;5057910;28;20471;-80
2023/07/08 14:26:13;;;;;;;2.55;1.42;;;;;;;;;;5045471;28;20028;-78
2023/07/08 14:28:39;;;;;;;1.70;1.33;;;;;;;;;;5047937;28;20032;-80
2023/07/08 14:31:10;;;;;;;1.27;1.10;;;;;;;;;;5052184;28;20032;-80
2023/07/08 14:33:36;;;;;;;1.70;1.60;;;;;;;;;;5054117;28;20025;-80
2023/07/08 14:36:02;;;;;;;1.75;1.25;;;;;;;;;;5048185;28;20099;-80
2023/07/08 14:38:28;;;;;;;2.85;1.50;;;;;;;;;;5048021;28;20059;-79
2023/07/08 14:40:54;;;;;;;2.15;1.30;;;;;;;;;;5055042;28;20039;-80
2023/07/08 14:43:27;;;;;;;1.35;1.17;;;;;;;;;;5047590;28;20495;-80
2023/07/08 14:45:54;;;;;;;1.77;1.45;;;;;;;;;;5052569;28;20111;-80
2023/07/08 14:48:20;;;;;;;1.70;1.60;;;;;;;;;;5048049;28;20040;-79
2023/07/08 14:50:46;;;;;;;1.23;1.00;;;;;;;;;;5043744;28;20078;-80